Time;durP1;ratioP1;P1;durP2;ratioP2;P2;SDS_P1;SDS_P2;PMS_P1;PMS_P2;Temp;Humidity;BMP_temperature;BMP_pressure;BME280_temperature;BME280_humidity;BME280_pressure;Samples;Min_cycle;Max_cycle;Signal;HPM_P1;HPM_P2
2023/07/23 00:01:45;;;;;;;25.55;14.77;;;14.90;99.90;;;;;;4990947;28;20432;-93
2023/07/23 00:04:10;;;;;;;28.17;14.77;;;14.80;99.90;;;;;;4989437;28;20447;-95
2023/07/23 00:06:38;;;;;;;25.57;15.23;;;15.00;99.90;;;;;;4989658;28;20416;-94
2023/07/23 00:09:04;;;;;;;29.73;16.25;;;14.80;99.90;;;;;;4989504;28;20406;-92
2023/07/23 00:11:30;;;;;;;21.73;14.25;;;15.10;99.90;;;;;;4992690;28;20457;-93
2023/07/23 00:13:56;;;;;;;24.23;15.77;;;14.80;99.90;;;;;;4993884;28;20391;-93
2023/07/23 00:16:23;;;;;;;25.00;15.80;;;15.10;99.90;;;;;;4991794;28;20902;-93
2023/07/23 00:18:49;;;;;;;24.27;15.82;;;14.80;99.90;;;;;;4994200;28;20399;-95
2023/07/23 00:21:15;;;;;;;28.33;18.10;;;15.20;99.90;;;;;;4991544;28;20518;-94
2023/07/23 00:23:41;;;;;;;25.00;17.63;;;14.90;99.90;;;;;;4993508;28;20489;-92
2023/07/23 00:26:06;;;;;;;26.80;18.50;;;14.70;99.90;;;;;;4992853;28;20410;-94
2023/07/23 00:28:32;;;;;;;28.02;17.88;;;14.90;99.90;;;;;;4992842;28;20389;-93
2023/07/23 00:30:58;;;;;;;25.07;17.17;;;14.70;99.90;;;;;;4993436;28;20415;-93
2023/07/23 00:33:24;;;;;;;26.37;18.40;;;15.00;99.90;;;;;;4992283;28;21216;-93
2023/07/23 00:35:50;;;;;;;22.42;15.32;;;14.90;99.90;;;;;;4992161;28;20505;-93
2023/07/23 00:38:16;;;;;;;26.08;16.48;;;15.00;99.90;;;;;;4990242;28;20406;-91
2023/07/23 00:40:41;;;;;;;31.02;18.13;;;14.50;99.90;;;;;;4992401;28;20427;-93
2023/07/23 00:43:07;;;;;;;25.10;15.20;;;15.00;99.90;;;;;;4991671;28;20469;-93
2023/07/23 00:45:33;;;;;;;26.08;15.45;;;14.80;99.90;;;;;;4992934;28;20407;-92
2023/07/23 00:47:59;;;;;;;29.97;15.87;;;14.80;99.90;;;;;;4992662;28;20481;-93
2023/07/23 00:50:29;;;;;;;24.73;14.70;;;15.00;99.90;;;;;;4991553;28;20450;-93
2023/07/23 00:52:56;;;;;;;28.13;15.43;;;15.00;99.90;;;;;;4993097;28;20418;-92
2023/07/23 00:55:22;;;;;;;30.03;15.73;;;15.40;99.90;;;;;;4995518;28;20436;-93
2023/07/23 00:57:47;;;;;;;26.70;15.60;;;14.90;99.90;;;;;;4997369;28;20432;-93
2023/07/23 01:00:13;;;;;;;25.15;15.10;;;14.60;99.90;;;;;;4995844;28;20415;-91
2023/07/23 01:02:39;;;;;;;23.63;13.98;;;14.70;99.90;;;;;;4997564;28;20399;-93
2023/07/23 01:05:06;;;;;;;23.67;14.48;;;14.80;99.90;;;;;;4996362;28;20414;-92
2023/07/23 01:07:43;;;;;;;19.97;13.57;;;14.60;99.90;;;;;;5012181;28;20453;-94
2023/07/23 01:10:09;;;;;;;26.55;15.02;;;14.80;99.90;;;;;;4997007;28;20463;-92
2023/07/23 01:12:37;;;;;;;23.70;15.38;;;14.60;99.90;;;;;;4995149;28;20441;-92
2023/07/23 01:15:05;;;;;;;22.85;15.50;;;14.70;99.90;;;;;;4997329;28;20976;-92
2023/07/23 01:17:32;;;;;;;28.27;16.58;;;14.70;99.90;;;;;;4995532;28;20407;-92
2023/07/23 01:20:06;;;;;;;26.33;16.15;;;14.70;99.90;;;;;;4996549;28;20456;-93
2023/07/23 01:22:36;;;;;;;22.85;14.57;;;15.10;99.90;;;;;;4996768;28;20423;-93
2023/07/23 01:25:04;;;;;;;27.23;15.48;;;15.00;99.90;;;;;;4995521;28;20482;-93
2023/07/23 01:27:30;;;;;;;28.20;15.90;;;14.70;99.90;;;;;;4997156;28;20453;-93
2023/07/23 01:29:56;;;;;;;26.63;15.82;;;14.70;99.90;;;;;;4994814;28;20411;-92
2023/07/23 01:32:21;;;;;;;29.50;16.73;;;14.70;99.90;;;;;;4996724;28;20418;-93
2023/07/23 01:34:48;;;;;;;30.42;17.27;;;14.70;99.90;;;;;;4994465;28;20411;-94
2023/07/23 01:37:14;;;;;;;23.80;13.73;;;14.80;99.90;;;;;;4996517;28;20403;-92
2023/07/23 01:39:42;;;;;;;20.48;12.75;;;14.80;99.90;;;;;;4995605;28;20476;-92
2023/07/23 01:42:11;;;;;;;21.85;13.23;;;14.70;99.90;;;;;;4995621;28;20486;-93
2023/07/23 01:44:37;;;;;;;21.30;13.60;;;14.90;99.90;;;;;;4996593;28;20406;-95
2023/07/23 01:47:03;;;;;;;21.77;13.77;;;14.70;99.90;;;;;;5010963;28;20502;-94
2023/07/23 01:49:29;;;;;;;22.08;13.80;;;14.70;99.90;;;;;;4996408;28;20407;-94
2023/07/23 01:51:57;;;;;;;22.23;13.07;;;15.00;99.90;;;;;;4994151;28;20415;-94
2023/07/23 01:54:22;;;;;;;20.88;12.02;;;14.90;99.90;;;;;;4996202;28;20411;-92
2023/07/23 01:56:48;;;;;;;22.73;13.87;;;14.90;99.90;;;;;;4995342;28;20495;-92
2023/07/23 01:59:14;;;;;;;23.75;14.23;;;15.10;99.90;;;;;;4995503;28;20422;-92
2023/07/23 02:01:40;;;;;;;24.60;13.50;;;15.40;99.90;;;;;;4995285;28;20435;-93
2023/07/23 02:04:06;;;;;;;24.80;13.87;;;14.70;99.90;;;;;;4994172;28;20411;-93
2023/07/23 02:06:31;;;;;;;20.15;12.20;;;14.70;99.90;;;;;;4996089;28;20490;-94
2023/07/23 02:08:57;;;;;;;32.50;15.75;;;15.40;99.90;;;;;;4991356;28;20426;-93
2023/07/23 02:11:23;;;;;;;26.30;14.40;;;15.20;99.90;;;;;;4995346;28;20422;-94
2023/07/23 02:13:48;;;;;;;21.52;13.48;;;15.00;99.90;;;;;;4994531;28;20402;-93
2023/07/23 02:16:20;;;;;;;21.97;12.63;;;14.80;99.90;;;;;;4996095;28;20407;-93
2023/07/23 02:18:46;;;;;;;24.65;13.77;;;14.90;99.90;;;;;;4995180;28;20964;-92
2023/07/23 02:21:12;;;;;;;23.45;13.05;;;14.80;99.90;;;;;;4994697;28;20427;-90
2023/07/23 02:23:37;;;;;;;21.47;13.03;;;15.00;99.90;;;;;;5012404;28;21032;-92
2023/07/23 02:26:03;;;;;;;19.77;11.98;;;14.70;99.90;;;;;;4994323;28;20414;-93
2023/07/23 02:28:29;;;;;;;21.02;12.85;;;14.70;99.90;;;;;;4996047;28;20399;-93
2023/07/23 02:30:56;;;;;;;20.70;12.60;;;14.80;99.90;;;;;;4994199;28;20473;-93
2023/07/23 02:33:22;;;;;;;22.98;13.02;;;15.40;99.90;;;;;;4995451;28;20495;-93
2023/07/23 02:35:48;;;;;;;18.87;11.93;;;14.90;99.90;;;;;;4994235;28;20502;-94
2023/07/23 02:38:13;;;;;;;20.10;11.77;;;15.30;99.90;;;;;;4994555;28;20885;-91
2023/07/23 02:40:39;;;;;;;16.83;11.10;;;14.90;99.90;;;;;;4995072;28;20446;-93
2023/07/23 02:43:05;;;;;;;22.57;12.07;;;14.80;99.90;;;;;;4993999;28;20468;-92
2023/07/23 02:45:30;;;;;;;16.40;10.93;;;14.80;99.90;;;;;;4995541;28;20492;-94
2023/07/23 02:47:56;;;;;;;20.63;11.48;;;14.50;99.90;;;;;;4993284;28;20465;-93
2023/07/23 02:50:22;;;;;;;19.73;12.60;;;14.60;99.90;;;;;;4995271;28;20774;-94
2023/07/23 02:52:48;;;;;;;18.02;11.63;;;14.60;99.90;;;;;;4993691;28;20404;-93
2023/07/23 02:55:14;;;;;;;16.85;11.45;;;14.80;99.90;;;;;;4994876;28;20422;-93
2023/07/23 02:57:39;;;;;;;16.63;11.03;;;14.60;99.90;;;;;;5010726;28;20420;-93
2023/07/23 03:00:06;;;;;;;17.02;11.57;;;14.80;99.90;;;;;;4993909;28;20442;-93
2023/07/23 03:02:31;;;;;;;17.50;11.60;;;14.50;99.90;;;;;;4994868;28;20400;-94
2023/07/23 03:04:57;;;;;;;15.77;10.82;;;14.70;99.90;;;;;;4993196;28;20498;-93
2023/07/23 03:07:23;;;;;;;19.80;11.77;;;14.80;99.90;;;;;;4995317;28;20425;-92
2023/07/23 03:09:48;;;;;;;15.40;10.48;;;14.60;99.90;;;;;;4992893;28;20441;-93
2023/07/23 03:12:14;;;;;;;15.90;11.20;;;14.70;99.90;;;;;;4995428;28;20457;-95
2023/07/23 03:14:40;;;;;;;20.27;12.50;;;14.80;99.90;;;;;;4993732;28;20407;-92
2023/07/23 03:17:06;;;;;;;18.63;12.07;;;14.70;99.90;;;;;;4993278;28;20486;-95
2023/07/23 03:19:31;;;;;;;20.30;12.70;;;14.90;99.90;;;;;;4994620;28;20522;-93
2023/07/23 03:21:57;;;;;;;18.50;11.83;;;14.80;99.90;;;;;;4993448;28;20407;-92
2023/07/23 03:24:22;;;;;;;19.08;12.40;;;14.60;99.90;;;;;;4994967;28;20411;-92
2023/07/23 03:26:48;;;;;;;18.40;12.27;;;14.80;99.90;;;;;;4992643;28;20407;-93
2023/07/23 03:29:14;;;;;;;18.20;12.25;;;14.60;99.90;;;;;;4994846;28;20415;-93
2023/07/23 03:31:40;;;;;;;17.40;12.00;;;15.40;99.90;;;;;;4993157;28;20396;-93
2023/07/23 03:34:05;;;;;;;20.48;13.07;;;14.50;99.90;;;;;;4994162;28;20410;-94
2023/07/23 03:36:31;;;;;;;19.30;12.82;;;14.50;99.90;;;;;;4993478;28;20421;-92
2023/07/23 03:38:57;;;;;;;18.83;12.53;;;14.90;99.90;;;;;;4993451;28;20395;-93
2023/07/23 03:41:22;;;;;;;17.17;12.07;;;14.60;99.90;;;;;;4994304;28;20439;-95
2023/07/23 03:43:48;;;;;;;20.97;12.30;;;14.70;99.90;;;;;;4992896;28;20435;-94
2023/07/23 03:46:14;;;;;;;17.77;11.63;;;14.60;99.90;;;;;;4994955;28;20453;-92
2023/07/23 03:48:40;;;;;;;18.83;12.48;;;14.50;99.90;;;;;;4992317;28;20464;-95
2023/07/23 03:51:06;;;;;;;17.60;11.50;;;14.60;99.90;;;;;;4994007;28;20407;-93
2023/07/23 03:53:31;;;;;;;23.30;13.20;;;14.80;99.90;;;;;;4993211;28;20450;-93
2023/07/23 03:55:57;;;;;;;19.63;13.20;;;14.50;99.90;;;;;;4993788;28;20411;-94
2023/07/23 03:58:23;;;;;;;18.92;12.77;;;14.40;99.90;;;;;;4994375;28;20604;-93
2023/07/23 04:00:48;;;;;;;20.87;12.83;;;14.70;99.90;;;;;;4992760;28;20474;-96
2023/07/23 04:03:14;;;;;;;16.02;11.60;;;14.50;99.90;;;;;;4993960;28;20418;-93
2023/07/23 04:05:40;;;;;;;20.97;12.90;;;14.80;99.90;;;;;;4992709;28;20466;-93
2023/07/23 04:08:05;;;;;;;16.60;11.75;;;14.60;99.90;;;;;;4994027;28;20455;-93
2023/07/23 04:10:31;;;;;;;22.20;14.43;;;14.50;99.90;;;;;;4989118;28;20764;-93
2023/07/23 04:12:57;;;;;;;18.60;13.00;;;14.40;99.90;;;;;;4990668;28;20491;-95
2023/07/23 04:15:23;;;;;;;19.77;13.60;;;14.60;99.90;;;;;;4989774;28;20449;-94
2023/07/23 04:17:48;;;;;;;21.98;13.75;;;14.60;99.90;;;;;;4989486;28;20408;-93
2023/07/23 04:20:14;;;;;;;21.03;13.83;;;14.70;99.90;;;;;;5006671;28;20440;-93
2023/07/23 04:22:40;;;;;;;23.05;14.38;;;14.90;99.90;;;;;;4988953;28;20758;-93
2023/07/23 04:25:07;;;;;;;23.53;15.27;;;14.80;99.90;;;;;;4990776;28;20916;-92
2023/07/23 04:27:32;;;;;;;25.27;15.13;;;14.60;99.90;;;;;;4988628;28;20401;-93
2023/07/23 04:29:58;;;;;;;22.60;15.37;;;14.70;99.90;;;;;;4990991;28;20420;-93
2023/07/23 04:32:24;;;;;;;20.80;13.60;;;15.20;99.90;;;;;;4989227;28;20907;-92
2023/07/23 04:34:49;;;;;;;22.20;14.23;;;14.80;99.90;;;;;;4989785;28;20416;-93
2023/07/23 04:37:15;;;;;;;25.38;15.77;;;15.30;99.90;;;;;;4990454;28;20942;-93
2023/07/23 04:39:41;;;;;;;18.30;12.98;;;15.00;99.90;;;;;;4989029;28;20432;-93
2023/07/23 04:42:06;;;;;;;20.97;13.20;;;15.00;99.90;;;;;;4990734;28;20405;-93
2023/07/23 04:44:32;;;;;;;22.48;14.13;;;14.70;99.90;;;;;;4988766;28;20539;-92
2023/07/23 04:46:58;;;;;;;22.83;14.23;;;14.80;99.90;;;;;;4990350;28;20405;-93
2023/07/23 04:49:23;;;;;;;21.83;13.73;;;15.00;99.90;;;;;;4988592;28;20904;-93
2023/07/23 04:51:49;;;;;;;21.90;13.57;;;14.90;99.90;;;;;;4990289;28;20416;-94
2023/07/23 04:54:15;;;;;;;23.25;15.07;;;15.10;99.90;;;;;;4988958;28;20420;-92
2023/07/23 04:56:40;;;;;;;21.00;14.80;;;15.10;99.90;;;;;;4989786;28;20400;-92
2023/07/23 04:59:07;;;;;;;23.70;15.00;;;14.80;99.90;;;;;;4989680;28;20931;-94
2023/07/23 05:01:33;;;;;;;19.48;13.55;;;15.00;99.90;;;;;;4988512;28;20419;-92
2023/07/23 05:03:58;;;;;;;21.00;13.53;;;15.40;99.90;;;;;;4990361;28;20591;-92
2023/07/23 05:06:24;;;;;;;22.17;14.57;;;15.00;99.90;;;;;;4989015;28;20432;-93
2023/07/23 05:08:50;;;;;;;21.73;14.60;;;15.20;99.90;;;;;;4990418;28;20492;-92
2023/07/23 05:11:15;;;;;;;23.63;14.57;;;15.00;99.90;;;;;;4989036;28;20412;-94
2023/07/23 05:13:41;;;;;;;23.38;14.85;;;15.10;99.90;;;;;;4989447;28;20401;-92
2023/07/23 05:16:07;;;;;;;20.05;13.98;;;14.70;99.90;;;;;;4989331;28;20834;-92
2023/07/23 05:18:33;;;;;;;19.07;13.33;;;15.00;99.90;;;;;;4988770;28;20416;-93
2023/07/23 05:21:02;;;;;;;19.92;13.60;;;15.00;99.90;;;;;;4990073;28;21121;-93
2023/07/23 05:23:28;;;;;;;20.80;13.93;;;14.90;99.90;;;;;;4988366;28;20447;-92
2023/07/23 05:25:56;;;;;;;20.08;14.32;;;14.80;99.90;;;;;;4990079;28;20437;-93
2023/07/23 05:28:22;;;;;;;23.70;15.63;;;14.80;99.90;;;;;;4988513;28;20483;-94
2023/07/23 05:30:47;;;;;;;17.33;13.75;;;15.00;99.90;;;;;;4989954;28;20452;-93
2023/07/23 05:33:13;;;;;;;19.93;14.10;;;14.90;99.90;;;;;;4989174;28;20400;-93
2023/07/23 05:35:39;;;;;;;19.70;13.18;;;15.00;99.90;;;;;;4990796;28;20407;-91
2023/07/23 05:38:05;;;;;;;20.20;14.10;;;15.00;99.90;;;;;;4989156;28;20409;-91
2023/07/23 05:40:35;;;;;;;22.23;14.07;;;15.30;99.90;;;;;;5008608;28;20429;-92
2023/07/23 05:43:12;;;;;;;17.50;13.45;;;15.00;99.90;;;;;;5016194;28;20421;-92
2023/07/23 05:45:38;;;;;;;24.48;16.25;;;14.80;99.90;;;;;;5013864;28;20411;-92
2023/07/23 05:48:04;;;;;;;23.57;16.00;;;15.00;99.90;;;;;;5003074;28;20492;-93
2023/07/23 05:50:30;;;;;;;20.17;15.05;;;14.80;99.90;;;;;;4981666;28;20772;-91
2023/07/23 05:52:55;;;;;;;20.83;14.77;;;15.10;99.90;;;;;;4978510;28;20412;-93
2023/07/23 05:55:21;;;;;;;18.67;13.65;;;15.30;99.90;;;;;;4976510;28;20516;-93
2023/07/23 05:57:47;;;;;;;18.47;14.83;;;15.10;99.90;;;;;;4975583;28;20419;-93
2023/07/23 06:00:13;;;;;;;22.33;15.50;;;14.90;99.90;;;;;;4976414;28;20420;-91
2023/07/23 06:02:38;;;;;;;18.92;14.18;;;14.90;99.90;;;;;;4975132;28;20776;-92
2023/07/23 06:05:04;;;;;;;25.13;16.70;;;14.90;99.90;;;;;;4976563;28;20405;-94
2023/07/23 06:07:30;;;;;;;21.50;15.50;;;14.90;99.90;;;;;;4974311;28;20409;-92
2023/07/23 06:09:55;;;;;;;22.02;15.73;;;15.20;99.90;;;;;;4975136;28;20411;-93
2023/07/23 06:12:21;;;;;;;22.73;16.43;;;15.30;99.90;;;;;;4977706;28;20415;-93
2023/07/23 06:14:47;;;;;;;22.52;16.25;;;15.00;99.90;;;;;;4980759;28;20927;-94
2023/07/23 06:17:12;;;;;;;23.93;16.90;;;15.30;99.90;;;;;;4975592;28;20420;-93
2023/07/23 06:19:38;;;;;;;22.00;15.95;;;15.00;99.90;;;;;;4975099;28;20939;-92
2023/07/23 06:22:04;;;;;;;22.60;15.37;;;15.20;99.90;;;;;;4976344;28;20412;-93
2023/07/23 06:24:29;;;;;;;22.53;16.20;;;15.10;99.90;;;;;;4974129;28;20790;-92
2023/07/23 06:26:55;;;;;;;21.50;15.65;;;15.40;99.90;;;;;;4976365;28;20492;-92
2023/07/23 06:29:21;;;;;;;19.87;15.03;;;15.60;99.90;;;;;;4974654;28;20413;-92
2023/07/23 06:31:46;;;;;;;21.92;15.68;;;15.20;99.90;;;;;;4975693;28;20435;-92
2023/07/23 06:34:15;;;;;;;17.67;13.88;;;15.40;99.90;;;;;;4991730;28;20523;-93
2023/07/23 06:36:41;;;;;;;18.33;14.65;;;15.20;99.90;;;;;;4974924;28;20417;-92
2023/07/23 06:39:07;;;;;;;21.17;15.38;;;15.30;99.90;;;;;;4975598;28;20408;-93
2023/07/23 06:41:40;;;;;;;23.50;16.58;;;15.20;99.90;;;;;;4974589;28;20453;-94
2023/07/23 06:44:06;;;;;;;21.30;15.77;;;15.10;99.90;;;;;;4975962;28;20405;-93
2023/07/23 06:46:32;;;;;;;25.33;17.60;;;15.20;99.90;;;;;;5008864;28;20424;-91
2023/07/23 06:48:57;;;;;;;21.97;16.00;;;15.60;99.90;;;;;;5015655;28;20497;-94
2023/07/23 06:51:25;;;;;;;21.10;15.43;;;15.60;99.90;;;;;;4998012;28;20461;-94
2023/07/23 06:53:51;;;;;;;22.87;16.27;;;15.70;99.90;;;;;;4976005;28;20411;-92
2023/07/23 06:56:18;;;;;;;22.60;17.07;;;15.40;99.90;;;;;;4974871;28;20416;-93
2023/07/23 06:58:43;;;;;;;28.90;18.70;;;15.40;99.90;;;;;;4990875;28;20489;-93
2023/07/23 07:01:13;;;;;;;24.90;16.23;;;15.70;99.90;;;;;;4974669;28;20437;-95
2023/07/23 07:03:41;;;;;;;25.35;16.83;;;15.30;99.90;;;;;;4974087;28;21004;-92
2023/07/23 07:06:07;;;;;;;24.98;18.05;;;15.90;99.90;;;;;;4975961;28;20519;-92
2023/07/23 07:08:32;;;;;;;26.40;17.00;;;15.70;99.90;;;;;;4973626;28;20419;-93
2023/07/23 07:11:03;;;;;;;22.73;16.53;;;15.80;99.90;;;;;;4991127;28;20428;-92
2023/07/23 07:13:30;;;;;;;24.73;17.52;;;16.00;99.90;;;;;;4974327;28;20412;-93
2023/07/23 07:15:56;;;;;;;25.65;17.92;;;15.60;99.90;;;;;;4973911;28;20804;-92
2023/07/23 07:18:22;;;;;;;26.95;17.98;;;15.70;99.90;;;;;;4975528;28;20401;-92
2023/07/23 07:20:57;;;;;;;25.17;17.42;;;15.80;99.90;;;;;;4973872;28;20519;-92
2023/07/23 07:23:24;;;;;;;26.38;17.38;;;15.60;99.90;;;;;;4975509;28;20421;-93
2023/07/23 07:25:50;;;;;;;26.00;16.88;;;15.70;99.90;;;;;;4973329;28;20409;-92
2023/07/23 07:28:15;;;;;;;26.33;16.33;;;16.40;99.90;;;;;;4975128;28;20467;-92
2023/07/23 07:30:41;;;;;;;24.55;15.77;;;15.70;99.90;;;;;;4974005;28;20404;-94
2023/07/23 07:33:11;;;;;;;28.03;17.00;;;15.70;99.90;;;;;;4974746;28;20907;-93
2023/07/23 07:35:36;;;;;;;27.00;16.05;;;15.80;99.90;;;;;;4975406;28;20455;-93
2023/07/23 07:38:05;;;;;;;25.17;16.10;;;15.80;99.90;;;;;;4975475;28;20504;-93
2023/07/23 07:40:31;;;;;;;28.45;17.55;;;16.20;99.90;;;;;;4974830;28;20504;-93
2023/07/23 07:43:05;;;;;;;29.45;18.00;;;16.00;99.90;;;;;;4973530;28;20455;-93
2023/07/23 07:45:31;;;;;;;32.28;17.58;;;15.90;99.90;;;;;;4973894;28;20413;-92
2023/07/23 07:47:56;;;;;;;32.47;17.77;;;16.10;99.90;;;;;;4973387;28;20733;-92
2023/07/23 07:50:22;;;;;;;26.45;16.52;;;16.00;99.90;;;;;;4974470;28;20447;-92
2023/07/23 07:52:48;;;;;;;26.90;16.77;;;16.10;99.90;;;;;;4973811;28;20405;-95
2023/07/23 07:55:16;;;;;;;29.65;18.05;;;16.10;99.90;;;;;;4973809;28;20444;-92
2023/07/23 07:57:42;;;;;;;30.02;18.10;;;16.40;99.90;;;;;;4974578;28;20413;-94
2023/07/23 08:00:10;;;;;;;26.17;17.35;;;16.20;99.90;;;;;;4974090;28;20531;-93
2023/07/23 08:02:35;;;;;;;21.08;16.58;;;16.20;99.90;;;;;;4974270;28;20413;-94
2023/07/23 08:05:01;;;;;;;27.67;19.02;;;16.20;99.90;;;;;;4972947;28;20401;-92
2023/07/23 08:07:30;;;;;;;22.35;17.27;;;16.20;99.90;;;;;;4975215;28;20465;-93
2023/07/23 08:09:59;;;;;;;24.58;18.52;;;16.20;99.90;;;;;;4971923;28;20478;-92
2023/07/23 08:12:25;;;;;;;28.00;19.13;;;16.20;99.90;;;;;;4974727;28;20412;-90
2023/07/23 08:14:53;;;;;;;24.77;18.67;;;16.20;99.90;;;;;;4972928;28;20412;-92
2023/07/23 08:17:20;;;;;;;25.38;20.33;;;16.20;99.90;;;;;;4973449;28;20405;-91
2023/07/23 08:19:46;;;;;;;27.80;20.33;;;16.20;99.90;;;;;;4973992;28;20472;-94
2023/07/23 08:22:13;;;;;;;25.03;20.00;;;16.30;99.90;;;;;;4972421;28;20429;-93
2023/07/23 08:24:38;;;;;;;22.25;18.60;;;16.20;99.90;;;;;;4974814;28;20939;-93
2023/07/23 08:27:07;;;;;;;25.85;20.35;;;16.30;99.90;;;;;;4988197;28;20437;-92
2023/07/23 08:29:36;;;;;;;22.42;19.75;;;16.30;99.90;;;;;;4974055;28;20745;-94
2023/07/23 08:32:03;;;;;;;23.73;21.20;;;16.50;99.90;;;;;;4989110;28;20488;-93
2023/07/23 08:34:29;;;;;;;25.70;22.73;;;16.30;99.90;;;;;;4974058;28;20405;-93
2023/07/23 08:36:55;;;;;;;25.35;22.65;;;16.30;99.90;;;;;;4983172;28;20408;-94
2023/07/23 08:39:21;;;;;;;25.52;22.92;;;16.30;99.90;;;;;;4980916;28;20416;-93
2023/07/23 08:42:06;;;;;;;25.25;22.60;;;16.40;99.90;;;;;;4974044;28;20790;-92
2023/07/23 08:45:04;;;;;;;24.25;21.65;;;16.50;99.90;;;;;;4986508;28;20457;-94
2023/07/23 08:47:37;;;;;;;22.15;19.85;;;16.50;99.90;;;;;;4992746;28;20446;-94
2023/07/23 08:50:03;;;;;;;20.48;18.48;;;16.80;99.90;;;;;;4993145;28;20465;-95
2023/07/23 08:52:34;;;;;;;22.15;19.73;;;16.50;99.90;;;;;;4992013;28;20439;-93
2023/07/23 08:55:00;;;;;;;22.25;19.95;;;16.50;99.90;;;;;;4993555;28;20490;-93
2023/07/23 08:57:26;;;;;;;23.08;20.73;;;16.60;99.90;;;;;;4991626;28;20402;-92
2023/07/23 08:59:52;;;;;;;20.88;18.67;;;16.50;99.90;;;;;;4993655;28;20515;-92
2023/07/23 09:02:21;;;;;;;20.58;18.55;;;16.20;99.90;;;;;;4991974;28;20563;-95
2023/07/23 09:04:46;;;;;;;20.92;18.85;;;16.50;99.90;;;;;;4993035;28;20445;-93
2023/07/23 09:07:15;;;;;;;21.27;19.13;;;16.50;99.90;;;;;;4992488;28;20407;-93
2023/07/23 09:09:40;;;;;;;20.70;18.70;;;16.90;99.90;;;;;;4992177;28;20910;-93
2023/07/23 09:12:06;;;;;;;20.67;18.67;;;16.40;99.90;;;;;;4993142;28;20453;-92
2023/07/23 09:14:41;;;;;;;19.60;17.75;;;16.50;99.90;;;;;;4992334;28;20407;-93
2023/07/23 09:17:16;;;;;;;21.63;19.52;;;16.40;99.90;;;;;;4998147;28;20411;-94
2023/07/23 09:19:42;;;;;;;20.05;18.15;;;16.50;99.90;;;;;;4995650;28;20427;-93
2023/07/23 09:22:08;;;;;;;19.35;17.10;;;16.70;99.90;;;;;;4996697;28;20438;-93
2023/07/23 09:24:33;;;;;;;18.52;16.77;;;16.60;99.90;;;;;;4996458;28;20395;-93
2023/07/23 09:27:01;;;;;;;18.95;17.15;;;16.60;99.90;;;;;;4996023;28;20415;-93
2023/07/23 09:29:35;;;;;;;20.27;18.27;;;16.50;99.90;;;;;;4996884;28;20909;-92
2023/07/23 09:32:01;;;;;;;21.33;18.98;;;16.60;99.90;;;;;;4994912;28;20403;-91
2023/07/23 09:34:30;;;;;;;20.75;18.58;;;16.90;99.90;;;;;;4996727;28;20428;-93
2023/07/23 09:36:55;;;;;;;20.50;18.40;;;16.90;99.90;;;;;;4994199;28;20411;-93
2023/07/23 09:39:25;;;;;;;19.48;17.48;;;16.80;99.90;;;;;;4996792;28;20418;-92
2023/07/23 09:41:51;;;;;;;22.05;19.65;;;16.60;99.90;;;;;;4995833;28;20854;-94
2023/07/23 09:44:25;;;;;;;20.60;18.33;;;16.60;99.90;;;;;;4995647;28;20482;-95
2023/07/23 09:46:50;;;;;;;19.67;17.58;;;16.80;99.90;;;;;;4996502;28;20945;-91
2023/07/23 09:49:24;;;;;;;20.17;18.10;;;16.70;99.90;;;;;;4995290;28;20469;-93
2023/07/23 09:51:53;;;;;;;22.08;19.77;;;16.70;99.90;;;;;;4997066;28;20408;-93
2023/07/23 09:54:20;;;;;;;22.27;19.88;;;16.60;99.90;;;;;;4994245;28;20963;-93
2023/07/23 09:56:47;;;;;;;23.98;21.38;;;16.60;99.90;;;;;;4996870;28;20415;-92
2023/07/23 09:59:14;;;;;;;22.33;19.33;;;17.30;99.90;;;;;;4995261;28;20907;-93
2023/07/23 10:01:40;;;;;;;22.00;19.63;;;17.00;99.90;;;;;;4995958;28;20486;-93
2023/07/23 10:04:09;;;;;;;22.85;20.48;;;17.30;99.90;;;;;;4995784;28;20435;-93
2023/07/23 10:06:36;;;;;;;22.40;20.02;;;17.20;99.90;;;;;;4994006;28;20498;-93
2023/07/23 10:09:03;;;;;;;21.90;19.60;;;16.80;99.90;;;;;;4996259;28;20441;-93
2023/07/23 10:11:29;;;;;;;20.40;18.20;;;16.80;99.90;;;;;;4993942;28;20404;-93
2023/07/23 10:13:55;;;;;;;21.92;19.65;;;17.10;99.90;;;;;;4996610;28;20426;-93
2023/07/23 10:16:27;;;;;;;21.23;18.88;;;17.00;99.90;;;;;;4995272;28;20407;-91
2023/07/23 10:18:56;;;;;;;22.20;18.95;;;17.40;99.90;;;;;;5014842;28;20420;-94
2023/07/23 10:21:22;;;;;;;23.13;19.13;;;17.20;99.90;;;;;;5010616;28;20433;-92
2023/07/23 10:23:58;;;;;;;20.23;17.65;;;16.60;99.90;;;;;;4985321;28;20410;-93
2023/07/23 10:26:28;;;;;;;20.13;18.00;;;17.60;99.90;;;;;;4984365;28;20419;-94
2023/07/23 10:29:09;;;;;;;21.23;18.02;;;17.10;99.90;;;;;;4985863;28;20431;-92
2023/07/23 10:31:35;;;;;;;19.27;17.17;;;17.30;99.90;;;;;;5008090;28;20405;-91
2023/07/23 10:34:01;;;;;;;19.35;17.23;;;16.90;99.90;;;;;;5013663;28;20505;-94
2023/07/23 10:36:27;;;;;;;19.00;16.17;;;17.10;99.90;;;;;;5014819;28;20487;-94
2023/07/23 10:39:14;;;;;;;20.08;17.55;;;17.30;99.90;;;;;;5014590;28;20809;-93
2023/07/23 10:41:55;;;;;;;18.60;16.20;;;17.40;99.90;;;;;;5013747;28;20416;-93
2023/07/23 10:44:27;;;;;;;18.45;14.82;;;17.60;99.90;;;;;;5015603;28;20417;-91
2023/07/23 10:46:56;;;;;;;19.25;16.13;;;17.50;99.90;;;;;;5012980;28;20429;-93
2023/07/23 10:49:29;;;;;;;18.67;16.10;;;17.50;99.90;;;;;;5014939;28;20488;-93
2023/07/23 10:52:16;;;;;;;19.48;16.35;;;18.00;99.90;;;;;;5015041;28;20453;-92
2023/07/23 10:54:42;;;;;;;19.58;16.70;;;17.60;99.90;;;;;;5029643;28;20416;-92
2023/07/23 10:57:08;;;;;;;20.42;16.77;;;17.60;99.90;;;;;;5015465;28;20440;-93
2023/07/23 10:59:38;;;;;;;18.48;15.48;;;17.80;99.90;;;;;;5012805;28;20799;-93
2023/07/23 11:02:05;;;;;;;18.50;16.52;;;18.00;99.90;;;;;;5014769;28;20418;-93
2023/07/23 11:04:45;;;;;;;17.43;15.10;;;17.60;99.90;;;;;;5013847;28;20432;-92
2023/07/23 11:07:25;;;;;;;17.25;15.45;;;17.90;99.90;;;;;;5012749;28;20525;-92
2023/07/23 11:09:54;;;;;;;16.50;14.90;;;18.00;99.90;;;;;;5014506;28;20444;-92
2023/07/23 11:12:23;;;;;;;16.50;14.83;;;17.70;99.90;;;;;;5013001;28;20417;-92
2023/07/23 11:14:50;;;;;;;18.25;16.30;;;18.00;99.90;;;;;;5014574;28;20397;-92
2023/07/23 11:17:16;;;;;;;17.15;14.88;;;17.80;99.90;;;;;;5012579;28;20761;-92
2023/07/23 11:19:46;;;;;;;16.48;14.75;;;18.30;99.90;;;;;;5012828;28;20428;-92
2023/07/23 11:22:15;;;;;;;16.27;14.50;;;17.80;99.90;;;;;;5013141;28;20406;-93
2023/07/23 11:24:41;;;;;;;17.65;15.40;;;18.10;99.90;;;;;;5011978;28;20900;-92
2023/07/23 11:27:09;;;;;;;17.37;15.67;;;17.70;99.90;;;;;;5013696;28;20398;-92
2023/07/23 11:29:35;;;;;;;17.45;15.50;;;17.70;99.90;;;;;;5011647;28;20439;-92
2023/07/23 11:32:02;;;;;;;17.43;15.50;;;17.70;99.90;;;;;;5013413;28;20436;-93
2023/07/23 11:34:28;;;;;;;17.33;15.50;;;17.70;99.90;;;;;;5011864;28;20436;-93
2023/07/23 11:36:55;;;;;;;19.05;15.73;;;18.30;99.90;;;;;;5011844;28;20939;-93
2023/07/23 11:39:24;;;;;;;16.85;15.05;;;18.10;99.90;;;;;;5012257;28;20520;-94
2023/07/23 11:41:50;;;;;;;17.95;15.90;;;18.10;99.90;;;;;;5011837;28;20421;-93
2023/07/23 11:44:15;;;;;;;18.83;16.45;;;17.70;99.90;;;;;;5012953;28;20448;-93
2023/07/23 11:46:41;;;;;;;19.30;16.75;;;17.70;99.90;;;;;;5011147;28;20433;-92
2023/07/23 11:49:12;;;;;;;18.67;16.73;;;17.80;99.90;;;;;;5012636;28;20412;-92
2023/07/23 11:51:39;;;;;;;19.75;16.92;;;18.00;99.90;;;;;;5011105;28;20452;-93
2023/07/23 11:54:09;;;;;;;19.98;16.35;;;17.50;99.90;;;;;;5012850;28;20401;-93
2023/07/23 11:56:39;;;;;;;17.83;15.98;;;17.70;99.90;;;;;;5011864;28;20443;-93
2023/07/23 11:59:08;;;;;;;18.20;15.38;;;17.50;99.90;;;;;;5011451;28;20793;-92
2023/07/23 12:01:36;;;;;;;18.50;16.55;;;17.60;99.90;;;;;;5012827;28;20758;-93
2023/07/23 12:04:06;;;;;;;17.52;15.73;;;17.60;99.90;;;;;;4997240;28;20431;-92
2023/07/23 12:06:35;;;;;;;17.13;15.32;;;17.70;99.90;;;;;;4974655;28;20413;-90
2023/07/23 12:09:06;;;;;;;16.52;14.75;;;18.30;99.90;;;;;;4972703;28;20401;-93
2023/07/23 12:11:32;;;;;;;17.42;15.68;;;17.70;99.90;;;;;;4973552;28;20855;-93
2023/07/23 12:14:02;;;;;;;16.37;14.63;;;17.80;99.90;;;;;;4973696;28;20504;-93
2023/07/23 12:16:40;;;;;;;15.20;13.70;;;17.90;99.90;;;;;;4973224;28;20421;-92
2023/07/23 12:19:09;;;;;;;15.25;13.75;;;18.60;99.90;;;;;;4974949;28;20412;-94
2023/07/23 12:21:40;;;;;;;14.80;13.40;;;18.20;99.90;;;;;;4972149;28;20465;-93
2023/07/23 12:24:20;;;;;;;13.57;12.18;;;18.00;99.90;;;;;;4974798;28;20409;-93
2023/07/23 12:26:50;;;;;;;13.73;12.43;;;18.10;99.90;;;;;;4972470;28;20417;-93
2023/07/23 12:29:23;;;;;;;12.18;10.98;;;18.40;99.90;;;;;;4975313;28;20843;-93